Latest Weather Observations for Canterbury

IDN60801

Issued at 10:12 am EST Tuesday 26 May 2020 (issued every 10 minutes, with the page automatically refreshed every 10 minutes)

About weather observations | Map of weather stations | Latest weather observations for NSW | Other Formats
Station Details ID: 066194 Name: CANTERBURY RACECOURSE AWS Lat: -33.91 Lon: 151.11 Height: 3.0 m
Data from the previous 72 hours. | See also: Recent months at Canterbury
Date/Time
EST
Temp
°C
App
Temp
°C
Dew
Point
°C
Rel
Hum
%
Delta-T
°C
Wind Press
QNH
hPa
Press
MSL
hPa
Rain since
9am
mm
Dir  Spd
km/h
Gust
km/h
Spd
kts
Gust
kts
26/10:00am 17.2 17.2 15.2 88 1.2 SSE 9 17 5 9 - - 0.4
26/09:30am 15.8 15.6 14.8 94 0.6 SSW 9 15 5 8 - - 0.4
26/09:04am 15.1 13.9 14.1 94 0.6 SSW 13 22 7 12 - - 0.0
26/09:00am 15.1 13.9 14.1 94 0.6 SSW 13 22 7 12 - - 19.2
26/08:53am 15.1 13.9 14.1 94 0.6 SSW 13 22 7 12 - - 19.2
26/08:30am 14.6 13.7 13.8 95 0.4 SW 11 17 6 9 - - 19.2
26/08:27am 14.4 13.5 13.6 95 0.4 SW 11 17 6 9 - - 19.2
26/08:14am 14.3 13.6 13.3 94 0.6 SSW 9 15 5 8 - - 19.2
26/08:09am 14.3 13.6 13.3 94 0.6 SSW 9 15 5 8 - - 19.0
26/08:00am 14.1 13.0 13.1 94 0.6 SSW 11 17 6 9 - - 19.0
26/07:51am 14.0 12.8 12.9 93 0.6 SSW 11 22 6 12 - - 18.8
26/07:30am 13.7 12.9 12.8 94 0.5 SW 9 17 5 9 - - 18.6
26/07:01am 13.6 12.7 12.7 94 0.5 SSW 9 17 5 9 - - 18.6
26/07:00am 13.6 12.7 12.7 94 0.5 SSW 9 17 5 9 - - 18.6
26/06:47am 13.7 12.0 12.6 93 0.6 SSW 13 20 7 11 - - 18.6
26/06:37am 13.7 12.0 12.4 92 0.7 SSW 13 22 7 12 - - 18.4
26/06:30am 13.7 12.4 12.4 92 0.7 SSW 11 20 6 11 - - 18.4
26/06:22am 13.9 11.8 12.5 91 0.8 SSW 15 24 8 13 - - 18.4
26/06:00am 13.8 12.5 12.5 92 0.7 SSW 11 17 6 9 - - 18.2
26/05:30am 13.9 12.3 12.8 93 0.6 SSW 13 24 7 13 - - 18.0
26/05:00am 14.1 12.0 12.5 90 0.9 SSW 15 32 8 17 - - 16.8
26/04:56am 14.2 12.1 12.4 89 1.0 SSW 15 32 8 17 - - 16.8
26/04:30am 14.2 11.6 12.1 87 1.1 SSW 17 30 9 16 - - 16.4
26/04:00am 14.3 11.8 12.2 87 1.1 SSW 17 26 9 14 - - 16.4
26/03:30am 14.2 11.6 12.1 87 1.1 SSW 17 32 9 17 - - 16.4
26/03:00am 13.8 11.1 11.8 88 1.1 SSW 17 28 9 15 - - 16.4
26/02:30am 13.9 11.2 11.8 87 1.1 SSW 17 24 9 13 - - 16.4
26/02:00am 13.8 11.2 12.0 89 1.0 SSW 17 32 9 17 - - 16.4
26/01:30am 13.7 11.1 12.1 90 0.9 SSW 17 33 9 18 - - 16.4
26/01:00am 13.6 11.9 12.3 92 0.7 SSW 13 20 7 11 - - 16.4
26/12:30am 13.5 10.6 12.2 92 0.7 SSW 19 30 10 16 - - 16.2
26/12:00am 13.5 10.0 12.2 92 0.7 SSW 22 39 12 21 - - 16.2
 
Date/Time
EST
Temp
°C
App
Temp
°C
Dew
Point
°C
Rel
Hum
%
Delta-T
°C
Wind Press
QNH
hPa
Press
MSL
hPa
Rain since
9am
mm
Dir  Spd
km/h
Gust
km/h
Spd
kts
Gust
kts
25/11:30pm 13.6 11.2 12.5 93 0.6 SSW 17 30 9 16 - - 16.2
25/11:22pm 13.6 11.2 12.7 94 0.5 SSW 17 24 9 13 - - 16.2
25/11:09pm 13.6 10.6 12.7 94 0.5 SSW 20 39 11 21 - - 16.0
25/11:00pm 13.6 10.6 12.5 93 0.6 SSW 20 37 11 20 - - 15.6
25/10:32pm 13.6 10.3 12.7 94 0.5 SSW 22 43 12 23 - - 15.6
25/10:30pm 13.6 10.7 12.8 95 0.4 SSW 20 43 11 23 - - 15.6
25/10:10pm 13.6 11.0 13.1 97 0.3 SSW 19 39 10 21 - - 14.8
25/10:04pm 13.7 11.1 13.2 97 0.3 SSW 19 39 10 21 - - 14.4
25/10:00pm 13.7 11.9 13.2 97 0.3 SSW 15 28 8 15 - - 14.2
25/09:51pm 13.7 11.1 13.2 97 0.3 SSW 19 28 10 15 - - 14.2
25/09:49pm 13.8 11.2 13.3 97 0.3 SSW 19 32 10 17 - - 14.2
25/09:30pm 13.7 11.1 13.2 97 0.3 SSW 19 30 10 16 - - 13.6
25/09:00pm 13.8 11.2 13.2 96 0.3 SSW 19 35 10 19 - - 12.4
25/08:45pm 13.8 11.5 13.0 95 0.4 S 17 32 9 17 - - 11.6
25/08:30pm 13.8 11.1 13.0 95 0.4 SSW 19 35 10 19 - - 10.8
25/08:29pm 13.8 10.9 13.0 95 0.4 SSW 20 35 11 19 - - 10.8
25/08:00pm 13.8 11.1 12.9 94 0.5 SSW 19 30 10 16 - - 9.0
25/07:52pm 13.8 11.1 12.9 94 0.5 SSW 19 35 10 19 - - 8.6
25/07:38pm 13.8 10.9 12.9 94 0.5 SSW 20 37 11 20 - - 8.0
25/07:30pm 13.8 11.5 12.9 94 0.5 SSW 17 35 9 19 - - 7.6
25/07:00pm 13.9 11.1 12.6 92 0.7 SSW 19 32 10 17 - - 5.2
25/06:59pm 13.9 11.1 12.6 92 0.7 SSW 19 32 10 17 - - 5.2
25/06:30pm 13.9 10.9 12.6 92 0.7 SSW 20 39 11 21 - - 4.0
25/06:00pm 14.1 10.7 12.5 90 0.9 SSW 22 41 12 22 - - 3.0
25/05:30pm 14.1 10.3 12.5 90 0.9 SSW 24 37 13 20 - - 2.4
25/05:00pm 14.1 10.6 12.1 88 1.1 SSW 22 35 12 19 - - 1.2
25/04:30pm 14.7 10.3 11.7 82 1.6 SSW 26 43 14 23 - - 0.2
25/04:00pm 15.8 10.3 10.6 71 2.8 SSW 30 50 16 27 - - 0.0
25/03:44pm 15.7 10.6 10.7 72 2.7 SSW 28 46 15 25 - - 0.0
25/03:30pm 15.4 11.1 10.8 74 2.4 SSW 24 37 13 20 - - 0.0
25/03:11pm 16.1 10.9 10.2 68 3.1 SSW 28 52 15 28 - - 0.0
25/03:00pm 16.3 12.2 10.2 67 3.2 SSW 22 39 12 21 - - 0.0
25/02:38pm 16.4 11.1 10.0 66 3.4 SSW 28 52 15 28 - - 0.0
25/02:30pm 16.5 12.3 9.9 65 3.5 SSW 22 39 12 21 - - 0.0
25/02:20pm 16.5 11.2 9.9 65 3.5 SSW 28 48 15 26 - - 0.0
25/02:00pm 16.5 12.3 9.7 64 3.6 SSW 22 43 12 23 - - 0.0
25/01:36pm 16.3 10.6 9.7 65 3.4 SSW 30 52 16 28 - - 0.0
25/01:30pm 16.3 11.4 9.9 66 3.4 SSW 26 46 14 25 - - 0.0
25/01:00pm 16.4 10.3 9.8 65 3.5 S 32 52 17 28 - - 0.0
25/12:30pm 16.4 10.4 10.0 66 3.4 S 32 57 17 31 - - 0.0
25/12:00pm 16.1 10.1 10.2 68 3.1 S 32 52 17 28 - - 0.0
25/11:31am 16.5 11.3 10.4 67 3.2 SSW 28 46 15 25 - - 0.0
25/11:30am 16.5 11.0 10.4 67 3.2 SSW 30 46 16 25 - - 0.0
25/11:11am 16.0 10.9 10.5 70 2.9 SSW 28 46 15 25 - - 0.0
25/11:00am 16.1 11.7 10.4 69 3.0 SSW 24 39 13 21 - - 0.0
25/10:42am 15.9 10.7 10.2 69 3.0 SSW 28 46 15 25 - - 0.0
25/10:30am 16.3 11.6 10.8 70 2.9 SSW 26 50 14 27 - - 0.0
25/10:23am 15.8 10.6 10.3 70 2.9 SSW 28 50 15 27 - - 0.0
25/10:00am 15.5 10.8 10.5 72 2.6 SSW 26 43 14 23 - - 0.0
25/09:30am 14.7 11.2 10.1 74 2.4 SSW 19 35 10 19 - - 0.0
25/09:00am 14.9 11.0 9.3 69 2.9 SSW 20 32 11 17 - - 0.0
25/08:30am 14.8 10.0 8.7 67 3.1 SSW 24 39 13 21 - - 0.0
25/08:00am 14.7 10.5 8.4 66 3.2 SSW 20 39 11 21 - - 0.0
25/07:30am 13.6 10.2 7.6 67 2.9 SW 15 26 8 14 - - 0.0
25/07:00am 13.2 9.7 7.2 67 2.9 WSW 15 22 8 12 - - 0.0
25/06:30am 12.8 9.5 6.6 66 3.0 WSW 13 20 7 11 - - 0.0
25/06:00am 12.7 9.4 6.5 66 3.0 WSW 13 19 7 10 - - 0.0
25/05:30am 12.9 10.1 6.9 67 2.9 WSW 11 19 6 10 - - 0.0
25/05:00am 12.9 9.7 6.7 66 3.0 WSW 13 20 7 11 - - 0.0
25/04:30am 13.2 10.0 7.0 66 3.0 SW 13 20 7 11 - - 0.0
25/04:00am 12.9 9.7 6.7 66 3.0 SW 13 20 7 11 - - 0.0
25/03:30am 13.4 9.8 6.7 64 3.2 SW 15 22 8 12 - - 0.0
25/03:00am 13.7 9.4 7.2 65 3.2 SW 19 33 10 18 - - 0.0
25/02:30am 14.1 9.4 7.6 65 3.2 SSW 22 35 12 19 - - 0.0
25/02:00am 14.2 9.9 7.7 65 3.2 SSW 20 39 11 21 - - 0.0
25/01:30am 14.1 9.9 7.4 64 3.3 SSW 19 33 10 18 - - 0.0
25/01:00am 14.2 9.8 7.5 64 3.3 SSW 20 33 11 18 - - 0.0
25/12:30am 14.1 9.9 7.6 65 3.2 SSW 19 35 10 19 - - 0.0
25/12:00am 13.4 10.1 6.5 63 3.3 SW 13 28 7 15 - - 0.0
 
Date/Time
EST
Temp
°C
App
Temp
°C
Dew
Point
°C
Rel
Hum
%
Delta-T
°C
Wind Press
QNH
hPa
Press
MSL
hPa
Rain since
9am
mm
Dir  Spd
km/h
Gust
km/h
Spd
kts
Gust
kts
24/11:30pm 13.3 9.6 6.2 62 3.4 SW 15 20 8 11 - - 0.0
24/11:00pm 12.8 9.8 5.9 63 3.2 WSW 11 17 6 9 - - 0.0
24/10:30pm 13.4 10.0 6.0 61 3.5 SW 13 22 7 12 - - 0.0
24/10:00pm 14.1 9.2 6.9 62 3.5 SSW 22 37 12 20 - - 0.0
24/09:30pm 13.8 9.9 5.4 57 3.9 SW 15 22 8 12 - - 0.0
24/09:00pm 13.8 10.2 4.9 55 4.1 SW 13 22 7 12 - - 0.0
24/08:30pm 14.1 10.1 4.7 53 4.4 SW 15 24 8 13 - - 0.0
24/08:00pm 13.9 10.2 4.5 53 4.3 SW 13 19 7 10 - - 0.0
24/07:30pm 14.9 10.8 4.6 50 4.8 SW 15 26 8 14 - - 0.0
24/07:00pm 15.4 10.7 5.0 50 4.9 SSW 19 35 10 19 - - 0.0
24/06:30pm 15.6 10.9 5.2 50 4.9 SSW 19 33 10 18 - - 0.0
24/06:00pm 15.8 10.1 4.8 48 5.2 SSW 24 41 13 22 - - 0.0
24/05:30pm 16.0 11.4 5.6 50 5.0 SSW 19 33 10 18 - - 0.0
24/05:00pm 16.2 10.7 6.1 51 4.9 SSW 24 41 13 22 - - 0.0
24/04:30pm 16.3 11.3 6.4 52 4.8 SSW 22 32 12 17 - - 0.0
24/04:11pm 16.4 10.3 6.5 52 4.8 S 28 52 15 28 - - 0.0
24/04:00pm 16.5 11.2 6.9 53 4.7 S 24 41 13 22 - - 0.0
24/03:30pm 16.8 9.9 6.6 51 5.0 SSW 32 52 17 28 - - 0.0
24/03:25pm 16.9 10.8 6.7 51 5.0 SSW 28 52 15 28 - - 0.0
24/03:00pm 17.0 12.2 7.4 53 4.8 SSW 22 43 12 23 - - 0.0
24/02:30pm 16.8 9.9 7.4 54 4.7 SSW 33 56 18 30 - - 0.0
24/02:00pm 17.1 10.5 7.7 54 4.7 SSW 32 54 17 29 - - 0.0
24/01:40pm 17.3 11.5 7.9 54 4.8 SSW 28 52 15 28 - - 0.0
24/01:30pm 17.5 12.6 8.4 55 4.7 SSW 24 44 13 24 - - 0.0
24/01:00pm 17.1 10.9 7.7 54 4.7 SSW 30 50 16 27 - - 0.0
24/12:32pm 17.3 11.1 7.9 54 4.8 SSW 30 50 16 27 - - 0.0
24/12:30pm 17.5 11.7 8.1 54 4.8 SSW 28 39 15 21 - - 0.0
24/12:00pm 17.1 11.4 8.5 57 4.4 SSW 28 48 15 26 - - 0.0
24/11:42am 16.8 11.1 8.5 58 4.2 SSW 28 52 15 28 - - 0.0
24/11:30am 16.7 11.5 8.9 60 4.0 SSW 26 43 14 23 - - 0.0
24/11:00am 16.6 11.9 9.1 61 3.9 SSW 24 48 13 26 - - 0.0
24/10:30am 17.2 10.9 9.1 59 4.2 SSW 32 54 17 29 - - 0.0
24/10:10am 16.9 11.3 8.8 59 4.2 SSW 28 52 15 28 - - 0.0
24/10:00am 17.2 12.5 9.4 60 4.1 S 24 43 13 23 - - 0.0
24/09:49am 16.8 11.2 8.8 59 4.1 SSW 28 52 15 28 - - 0.0
24/09:30am 16.6 11.0 8.6 59 4.1 SSW 28 44 15 24 - - 0.0
24/09:24am 16.6 10.9 8.3 58 4.2 SSW 28 46 15 25 - - 0.0
24/09:00am 16.3 11.3 8.0 58 4.2 SSW 24 39 13 21 - - 0.4
24/08:30am 15.9 11.8 7.9 59 4.0 SSW 19 30 10 16 - - 0.4
24/08:00am 15.0 11.1 7.3 60 3.8 SW 17 26 9 14 - - 0.4
24/07:30am 14.3 11.0 6.6 60 3.7 WSW 13 20 7 11 - - 0.4
24/07:00am 15.5 11.1 7.3 58 4.1 SW 20 35 11 19 - - 0.4
24/06:30am 14.7 11.5 7.0 60 3.8 SW 13 20 7 11 - - 0.4
24/06:00am 14.4 10.8 6.7 60 3.7 WSW 15 32 8 17 - - 0.4
24/05:30am 14.2 11.0 6.8 61 3.6 WSW 13 19 7 10 - - 0.4
24/05:00am 14.1 10.9 6.7 61 3.6 WSW 13 20 7 11 - - 0.4
24/04:30am 14.0 10.7 6.6 61 3.6 WSW 13 22 7 12 - - 0.4
24/04:00am 13.9 10.3 6.7 62 3.5 WSW 15 20 8 11 - - 0.4
24/03:30am 13.8 10.6 6.7 62 3.4 WSW 13 20 7 11 - - 0.4
24/03:00am 13.9 10.7 6.7 62 3.5 WSW 13 24 7 13 - - 0.4
24/02:30am 14.2 10.6 6.6 60 3.7 WSW 15 22 8 12 - - 0.4
24/02:00am 14.2 10.6 6.8 61 3.6 WSW 15 26 8 14 - - 0.4
24/01:30am 14.2 10.6 6.8 61 3.6 WSW 15 22 8 12 - - 0.4
24/01:00am 14.2 10.3 7.0 62 3.5 WSW 17 28 9 15 - - 0.4
24/12:30am 14.1 10.5 6.9 62 3.5 WSW 15 22 8 12 - - 0.4
24/12:00am 14.2 10.7 7.3 63 3.4 WSW 15 24 8 13 - - 0.4
 
Date/Time
EST
Temp
°C
App
Temp
°C
Dew
Point
°C
Rel
Hum
%
Delta-T
°C
Wind Press
QNH
hPa
Press
MSL
hPa
Rain since
9am
mm
Dir  Spd
km/h
Gust
km/h
Spd
kts
Gust
kts
23/11:30pm 14.3 10.5 7.4 63 3.4 WSW 17 30 9 16 - - 0.4
23/11:00pm 14.3 10.8 7.4 63 3.4 WSW 15 24 8 13 - - 0.4
23/10:30pm 14.3 11.2 7.4 63 3.4 WSW 13 20 7 11 - - 0.4
23/10:00pm 14.4 10.9 7.2 62 3.5 SW 15 24 8 13 - - 0.4
23/09:30pm 14.6 11.5 7.4 62 3.5 SW 13 28 7 15 - - 0.4
23/09:00pm 14.6 11.5 7.4 62 3.5 WSW 13 20 7 11 - - 0.4
23/08:30pm 14.7 12.0 7.5 62 3.6 WSW 11 22 6 12 - - 0.4
23/08:00pm 14.5 11.9 7.8 64 3.3 WSW 11 20 6 11 - - 0.4
23/07:30pm 13.8 12.3 9.0 73 2.4 W 7 11 4 6 - - 0.4
23/07:00pm 13.8 12.3 9.3 74 2.3 W 7 13 4 7 - - 0.4
23/06:30pm 14.0 12.5 9.2 73 2.4 W 7 11 4 6 - - 0.4
23/06:00pm 14.0 11.6 8.8 71 2.6 W 11 17 6 9 - - 0.4
23/05:30pm 13.8 11.5 9.0 73 2.4 W 11 17 6 9 - - 0.4
23/05:00pm 14.0 11.8 9.2 73 2.4 W 11 19 6 10 - - 0.4
23/04:30pm 14.6 11.5 9.0 69 2.8 WSW 15 24 8 13 - - 0.2
23/04:00pm 14.7 12.0 8.9 68 2.9 WSW 13 24 7 13 - - 0.2
23/03:30pm 14.4 11.9 9.6 73 2.5 W 13 22 7 12 - - 0.2
23/03:00pm 15.1 11.2 8.6 65 3.3 WSW 19 26 10 14 - - 0.0
23/02:30pm 15.9 11.2 7.9 59 4.0 WSW 22 32 12 17 - - 0.0
23/02:00pm 16.0 11.7 8.0 59 4.0 SW 20 28 11 15 - - 0.0
23/01:30pm 15.9 12.3 8.2 60 3.9 SW 17 30 9 16 - - 0.0
23/01:00pm 15.4 12.1 9.7 69 3.0 WSW 17 28 9 15 - - 0.0
23/12:30pm 15.7 11.7 9.1 65 3.4 SW 20 35 11 19 - - 0.0
23/12:00pm 16.5 12.2 8.0 57 4.3 SW 20 35 11 19 - - 0.0
23/11:30am 17.2 13.4 7.5 53 4.9 SW 17 26 9 14 - - 0.0
23/11:00am 17.3 12.5 7.4 52 5.0 SW 22 35 12 19 - - 0.0
23/10:30am 17.4 13.1 6.9 50 5.2 WSW 19 32 10 17 - - 0.0

Other formats

Comma delimited format used in spreadsheet applications
http://www.bom.gov.au/fwo/IDN60801/IDN60801.94766.axf

JavaScript Object Notation format (JSON) in row-major order
http://www.bom.gov.au/fwo/IDN60801/IDN60801.94766.json

Data quality

Most of these data are generated automatically and are frequently updated. Quality checks on data are not normally performed. It is possible for incorrect values to appear. Refer to information at About Latest Weather Observations and please check the disclaimer before using these data.